LXJ125 KTPA-MYNN
Flight info
| Callsign | LXJ125 |
|---|---|
| Flight time | 1h 1m |
| Altitude | 31000 |
| Route | GANDY8 SABEE DCT FERAL DCT CUURT DCT SAXXN DCT ELQUE DCT RAJAY |
| Aircraft | C750/M-SBDE3FGHRWXY/S |
Departure
| Time | 2026-05-05 23:13 |
|---|---|
| Airport | Tampa International Airport (KTPA) |
Arrival
| Time | 2026-05-06 00:14 |
|---|---|
| Airport | Lynden Pindling International Airport (MYNN) |
| Time | Latitude | Longitude | Altitude | Speed | Heading |
|---|---|---|---|---|---|
| 2026-05-05 23:00 | 27.96761 | -82.52593 | 19 ft | 0 kts | 224° |
| 2026-05-05 23:05 | 27.96758 | -82.52596 | 19 ft | 2 kts | 230° |
| 2026-05-05 23:06 | 27.96746 | -82.52615 | 19 ft | 1 kts | 257° |
| 2026-05-05 23:06 | 27.96780 | -82.52638 | 19 ft | 9 kts | 12° |
| 2026-05-05 23:06 | 27.96845 | -82.52592 | 21 ft | 10 kts | 28° |
| 2026-05-05 23:06 | 27.96916 | -82.52586 | 22 ft | 12 kts | 315° |
| 2026-05-05 23:07 | 27.96963 | -82.52667 | 21 ft | 12 kts | 341° |
| 2026-05-05 23:07 | 27.97053 | -82.52672 | 22 ft | 13 kts | 359° |
| 2026-05-05 23:07 | 27.97156 | -82.52673 | 22 ft | 15 kts | 359° |
| 2026-05-05 23:07 | 27.97273 | -82.52676 | 22 ft | 17 kts | 356° |
| 2026-05-05 23:08 | 27.97404 | -82.52689 | 22 ft | 19 kts | 353° |
| 2026-05-05 23:08 | 27.97538 | -82.52698 | 22 ft | 18 kts | 4° |
| 2026-05-05 23:08 | 27.97671 | -82.52692 | 22 ft | 18 kts | 0° |
| 2026-05-05 23:08 | 27.97803 | -82.52692 | 22 ft | 18 kts | 3° |
| 2026-05-05 23:09 | 27.97932 | -82.52688 | 22 ft | 18 kts | 3° |
| 2026-05-05 23:09 | 27.98061 | -82.52682 | 22 ft | 18 kts | 360° |
| 2026-05-05 23:09 | 27.98189 | -82.52676 | 22 ft | 18 kts | 2° |
| 2026-05-05 23:09 | 27.98314 | -82.52673 | 25 ft | 17 kts | 1° |
| 2026-05-05 23:10 | 27.98443 | -82.52667 | 25 ft | 20 kts | 3° |
| 2026-05-05 23:10 | 27.98579 | -82.52663 | 25 ft | 15 kts | 359° |
| 2026-05-05 23:10 | 27.98659 | -82.52700 | 25 ft | 8 kts | 314° |
| 2026-05-05 23:10 | 27.98669 | -82.52711 | 25 ft | 0 kts | 314° |
| 2026-05-05 23:11 | 27.98675 | -82.52719 | 25 ft | 6 kts | 314° |
| 2026-05-05 23:12 | 27.98706 | -82.52799 | 25 ft | 12 kts | 264° |
| 2026-05-05 23:12 | 27.98633 | -82.52834 | 25 ft | 13 kts | 182° |
| 2026-05-05 23:12 | 27.98220 | -82.52845 | 22 ft | 115 kts | 179° |
| 2026-05-05 23:12 | 27.97116 | -82.52870 | 181 ft | 187 kts | 181° |
| 2026-05-05 23:13 | 27.95630 | -82.52874 | 574 ft | 228 kts | 180° |
| 2026-05-05 23:13 | 27.94017 | -82.53153 | 1538 ft | 237 kts | 201° |
| 2026-05-05 23:13 | 27.92577 | -82.53973 | 2743 ft | 229 kts | 201° |
| 2026-05-05 23:13 | 27.91044 | -82.54381 | 3343 ft | 228 kts | 184° |
| 2026-05-05 23:14 | 27.89428 | -82.54685 | 3663 ft | 238 kts | 188° |
| 2026-05-05 23:14 | 27.87737 | -82.55041 | 3892 ft | 252 kts | 188° |
| 2026-05-05 23:14 | 27.85932 | -82.55429 | 4117 ft | 266 kts | 188° |
| 2026-05-05 23:14 | 27.84084 | -82.55827 | 4383 ft | 268 kts | 188° |
| 2026-05-05 23:15 | 27.82220 | -82.56229 | 4642 ft | 267 kts | 188° |
| 2026-05-05 23:15 | 27.80417 | -82.56622 | 5091 ft | 258 kts | 189° |
| 2026-05-05 23:15 | 27.78663 | -82.56999 | 5525 ft | 250 kts | 188° |
| 2026-05-05 23:15 | 27.76942 | -82.57269 | 5958 ft | 244 kts | 173° |
| 2026-05-05 23:16 | 27.75256 | -82.56639 | 6542 ft | 267 kts | 154° |
| 2026-05-05 23:16 | 27.73433 | -82.55785 | 7290 ft | 289 kts | 156° |
| 2026-05-05 23:16 | 27.71569 | -82.54899 | 8306 ft | 297 kts | 157° |
| 2026-05-05 23:16 | 27.69621 | -82.53977 | 9228 ft | 302 kts | 157° |
| 2026-05-05 23:17 | 27.67645 | -82.53042 | 9986 ft | 311 kts | 158° |
| 2026-05-05 23:17 | 27.65569 | -82.52063 | 10658 ft | 322 kts | 158° |
| 2026-05-05 23:17 | 27.63428 | -82.51046 | 11143 ft | 339 kts | 157° |
| 2026-05-05 23:17 | 27.61207 | -82.49995 | 11826 ft | 350 kts | 157° |
| 2026-05-05 23:18 | 27.58936 | -82.48922 | 12648 ft | 356 kts | 157° |
| 2026-05-05 23:18 | 27.56595 | -82.47781 | 13469 ft | 361 kts | 154° |
| 2026-05-05 23:18 | 27.54371 | -82.46427 | 14240 ft | 366 kts | 151° |
| 2026-05-05 23:18 | 27.52078 | -82.45056 | 14952 ft | 370 kts | 152° |
| 2026-05-05 23:19 | 27.49782 | -82.43668 | 15579 ft | 376 kts | 152° |
| 2026-05-05 23:19 | 27.47452 | -82.42261 | 16236 ft | 380 kts | 152° |
| 2026-05-05 23:19 | 27.45087 | -82.40836 | 16919 ft | 384 kts | 152° |
| 2026-05-05 23:19 | 27.42668 | -82.39385 | 17554 ft | 388 kts | 153° |
| 2026-05-05 23:20 | 27.40241 | -82.37931 | 18169 ft | 391 kts | 152° |
| 2026-05-05 23:20 | 27.37779 | -82.36455 | 18724 ft | 397 kts | 153° |
| 2026-05-05 23:20 | 27.35286 | -82.34959 | 19305 ft | 401 kts | 153° |
| 2026-05-05 23:20 | 27.32787 | -82.33466 | 19849 ft | 405 kts | 153° |
| 2026-05-05 23:21 | 27.30251 | -82.31944 | 20371 ft | 410 kts | 153° |
| 2026-05-05 23:21 | 27.27686 | -82.30411 | 20875 ft | 414 kts | 153° |
| 2026-05-05 23:21 | 27.25102 | -82.28869 | 21378 ft | 418 kts | 153° |
| 2026-05-05 23:21 | 27.22483 | -82.27299 | 21892 ft | 421 kts | 154° |
| 2026-05-05 23:22 | 27.19798 | -82.25697 | 22416 ft | 427 kts | 154° |
| 2026-05-05 23:22 | 27.17058 | -82.24059 | 23070 ft | 433 kts | 154° |
| 2026-05-05 23:22 | 27.14317 | -82.22430 | 23746 ft | 437 kts | 154° |
| 2026-05-05 23:22 | 27.11551 | -82.20778 | 24423 ft | 441 kts | 154° |
| 2026-05-05 23:23 | 27.08762 | -82.19099 | 24969 ft | 448 kts | 151° |
| 2026-05-05 23:23 | 27.06101 | -82.17170 | 25566 ft | 453 kts | 147° |
| 2026-05-05 23:23 | 27.03411 | -82.15185 | 26129 ft | 458 kts | 148° |
| 2026-05-05 23:23 | 27.00719 | -82.13202 | 26715 ft | 461 kts | 148° |
| 2026-05-05 23:24 | 26.98005 | -82.11199 | 27235 ft | 466 kts | 146° |
| 2026-05-05 23:24 | 26.95253 | -82.09144 | 27704 ft | 471 kts | 149° |
| 2026-05-05 23:24 | 26.92463 | -82.07133 | 28255 ft | 474 kts | 148° |
| 2026-05-05 23:24 | 26.89657 | -82.05079 | 28754 ft | 478 kts | 147° |
| 2026-05-05 23:25 | 26.86837 | -82.03017 | 29220 ft | 482 kts | 147° |
| 2026-05-05 23:25 | 26.83978 | -82.00920 | 29687 ft | 486 kts | 147° |
| 2026-05-05 23:25 | 26.81088 | -81.98806 | 30122 ft | 490 kts | 148° |
| 2026-05-05 23:25 | 26.78234 | -81.96720 | 30548 ft | 493 kts | 148° |
| 2026-05-05 23:26 | 26.75286 | -81.94559 | 30947 ft | 496 kts | 147° |
| 2026-05-05 23:26 | 26.72352 | -81.92419 | 30990 ft | 507 kts | 148° |
| 2026-05-05 23:26 | 26.69330 | -81.90213 | 30999 ft | 519 kts | 147° |
| 2026-05-05 23:26 | 26.66227 | -81.87946 | 31002 ft | 530 kts | 147° |
| 2026-05-05 23:27 | 26.59851 | -81.83295 | 30996 ft | 550 kts | 147° |
| 2026-05-05 23:27 | 26.53299 | -81.78516 | 30999 ft | 564 kts | 146° |
| 2026-05-05 23:28 | 26.50339 | -81.75546 | 31025 ft | 569 kts | 128° |
| 2026-05-05 23:28 | 26.47979 | -81.71915 | 31014 ft | 572 kts | 123° |
| 2026-05-05 23:28 | 26.43233 | -81.64580 | 31005 ft | 576 kts | 124° |
| 2026-05-05 23:29 | 26.38434 | -81.57181 | 31008 ft | 582 kts | 124° |
| 2026-05-05 23:29 | 26.33585 | -81.49719 | 31004 ft | 579 kts | 124° |
| 2026-05-05 23:30 | 26.28768 | -81.42316 | 31003 ft | 564 kts | 124° |
| 2026-05-05 23:30 | 26.23985 | -81.34971 | 31003 ft | 551 kts | 124° |
| 2026-05-05 23:31 | 26.19361 | -81.27889 | 30988 ft | 536 kts | 124° |
| 2026-05-05 23:31 | 26.14962 | -81.21159 | 30989 ft | 519 kts | 124° |
| 2026-05-05 23:32 | 26.10665 | -81.14596 | 30989 ft | 510 kts | 124° |
| 2026-05-05 23:32 | 26.06418 | -81.08116 | 30990 ft | 502 kts | 124° |
| 2026-05-05 23:33 | 26.02295 | -81.01842 | 30976 ft | 481 kts | 124° |
| 2026-05-05 23:33 | 26.00265 | -80.98834 | 30946 ft | 465 kts | 130° |
| 2026-05-05 23:33 | 25.97801 | -80.96603 | 30947 ft | 446 kts | 154° |
| 2026-05-05 23:34 | 25.94895 | -80.95514 | 30951 ft | 420 kts | 178° |
| 2026-05-05 23:34 | 25.92036 | -80.95673 | 30958 ft | 392 kts | 202° |
| 2026-05-05 23:34 | 25.89630 | -80.96967 | 30978 ft | 363 kts | 227° |
| 2026-05-05 23:34 | 25.88081 | -80.99045 | 30969 ft | 333 kts | 253° |
| 2026-05-05 23:35 | 25.87589 | -81.01452 | 30976 ft | 308 kts | 278° |
| 2026-05-05 23:35 | 25.88163 | -81.03636 | 30983 ft | 292 kts | 303° |
| 2026-05-05 23:35 | 25.89397 | -81.05500 | 31010 ft | 290 kts | 308° |
| 2026-05-05 23:35 | 25.90675 | -81.07375 | 31025 ft | 305 kts | 306° |
| 2026-05-05 23:36 | 25.91965 | -81.09345 | 31026 ft | 319 kts | 306° |
| 2026-05-05 23:36 | 25.93320 | -81.11446 | 31024 ft | 333 kts | 306° |
| 2026-05-05 23:36 | 25.94716 | -81.13622 | 31021 ft | 346 kts | 306° |
| 2026-05-05 23:36 | 25.96176 | -81.15888 | 31015 ft | 358 kts | 306° |
| 2026-05-05 23:37 | 25.97678 | -81.18195 | 31005 ft | 370 kts | 308° |
| 2026-05-05 23:37 | 25.99677 | -81.20058 | 30976 ft | 382 kts | 329° |
| 2026-05-05 23:37 | 26.02286 | -81.20934 | 30973 ft | 400 kts | 349° |
| 2026-05-05 23:37 | 26.05192 | -81.20654 | 30973 ft | 423 kts | 8° |
| 2026-05-05 23:38 | 26.07992 | -81.19168 | 30967 ft | 450 kts | 27° |
| 2026-05-05 23:38 | 26.10110 | -81.16898 | 30965 ft | 474 kts | 45° |
| 2026-05-05 23:38 | 26.10366 | -81.16515 | 30964 ft | 477 kts | 47° |
| 2026-05-05 23:39 | 26.11837 | -81.13169 | 30948 ft | 474 kts | 66° |
| 2026-05-05 23:39 | 26.12231 | -81.09475 | 30948 ft | 468 kts | 88° |
| 2026-05-05 23:39 | 26.11519 | -81.05994 | 30949 ft | 461 kts | 109° |
| 2026-05-05 23:39 | 26.09800 | -81.02998 | 30959 ft | 450 kts | 132° |
| 2026-05-05 23:40 | 26.07559 | -81.00530 | 31009 ft | 436 kts | 127° |
| 2026-05-05 23:40 | 26.06196 | -80.97600 | 31056 ft | 421 kts | 99° |
| 2026-05-05 23:40 | 26.04658 | -80.91107 | 31037 ft | 441 kts | 105° |
| 2026-05-05 23:41 | 26.02402 | -80.84531 | 31025 ft | 458 kts | 107° |
| 2026-05-05 23:41 | 25.99979 | -80.77733 | 31030 ft | 477 kts | 108° |
| 2026-05-05 23:42 | 25.98725 | -80.74225 | 31028 ft | 489 kts | 108° |
| 2026-05-05 23:42 | 25.97450 | -80.70637 | 31027 ft | 500 kts | 108° |
| 2026-05-05 23:42 | 25.94812 | -80.63268 | 31024 ft | 520 kts | 108° |
| 2026-05-05 23:43 | 25.92052 | -80.55578 | 31024 ft | 537 kts | 108° |
| 2026-05-05 23:43 | 25.89226 | -80.47704 | 31018 ft | 551 kts | 108° |
| 2026-05-05 23:44 | 25.86290 | -80.39535 | 31015 ft | 563 kts | 108° |
| 2026-05-05 23:44 | 25.83342 | -80.31360 | 31003 ft | 572 kts | 109° |
| 2026-05-05 23:45 | 25.80329 | -80.23039 | 31004 ft | 579 kts | 109° |
| 2026-05-05 23:45 | 25.77300 | -80.14647 | 31008 ft | 584 kts | 109° |
| 2026-05-05 23:46 | 25.74306 | -80.06159 | 31004 ft | 586 kts | 103° |
| 2026-05-05 23:46 | 25.71943 | -79.97593 | 31005 ft | 563 kts | 104° |
| 2026-05-05 23:47 | 25.70747 | -79.93487 | 30996 ft | 546 kts | 104° |
| 2026-05-05 23:47 | 25.69587 | -79.89502 | 30999 ft | 531 kts | 104° |
| 2026-05-05 23:47 | 25.68459 | -79.85608 | 30995 ft | 518 kts | 104° |
| 2026-05-05 23:47 | 25.67363 | -79.81823 | 30997 ft | 506 kts | 104° |
| 2026-05-05 23:48 | 25.65217 | -79.74443 | 31001 ft | 491 kts | 104° |
| 2026-05-05 23:48 | 25.63129 | -79.67273 | 31004 ft | 480 kts | 103° |
| 2026-05-05 23:49 | 25.61061 | -79.60180 | 30641 ft | 475 kts | 104° |
| 2026-05-05 23:49 | 25.60042 | -79.56713 | 30123 ft | 459 kts | 103° |
| 2026-05-05 23:49 | 25.59077 | -79.53413 | 29606 ft | 444 kts | 104° |
| 2026-05-05 23:50 | 25.58108 | -79.50098 | 29077 ft | 431 kts | 104° |
| 2026-05-05 23:50 | 25.57170 | -79.46905 | 28559 ft | 419 kts | 104° |
| 2026-05-05 23:50 | 25.56231 | -79.43704 | 28032 ft | 409 kts | 104° |
| 2026-05-05 23:50 | 25.55324 | -79.40614 | 27513 ft | 401 kts | 104° |
| 2026-05-05 23:51 | 25.54427 | -79.37566 | 27007 ft | 397 kts | 104° |
| 2026-05-05 23:51 | 25.53544 | -79.34560 | 26518 ft | 397 kts | 104° |
| 2026-05-05 23:51 | 25.52659 | -79.31538 | 26016 ft | 397 kts | 105° |
| 2026-05-05 23:51 | 25.51788 | -79.28579 | 25520 ft | 397 kts | 105° |
| 2026-05-05 23:52 | 25.50925 | -79.25658 | 25036 ft | 397 kts | 105° |
| 2026-05-05 23:52 | 25.50063 | -79.22732 | 24574 ft | 395 kts | 105° |
| 2026-05-05 23:52 | 25.49197 | -79.19805 | 24118 ft | 394 kts | 105° |
| 2026-05-05 23:52 | 25.48339 | -79.16911 | 23662 ft | 392 kts | 105° |
| 2026-05-05 23:53 | 25.47487 | -79.14033 | 23206 ft | 391 kts | 105° |
| 2026-05-05 23:53 | 25.46640 | -79.11164 | 22758 ft | 389 kts | 105° |
| 2026-05-05 23:53 | 25.45785 | -79.08284 | 22311 ft | 387 kts | 106° |
| 2026-05-05 23:53 | 25.44943 | -79.05434 | 21905 ft | 384 kts | 106° |
| 2026-05-05 23:54 | 25.44105 | -79.02628 | 21765 ft | 375 kts | 106° |
| 2026-05-05 23:54 | 25.43286 | -78.99869 | 21575 ft | 381 kts | 106° |
| 2026-05-05 23:54 | 25.42457 | -78.97067 | 21368 ft | 386 kts | 106° |
| 2026-05-05 23:54 | 25.41601 | -78.94191 | 21117 ft | 393 kts | 106° |
| 2026-05-05 23:55 | 25.40724 | -78.91244 | 20800 ft | 400 kts | 106° |
| 2026-05-05 23:55 | 25.39845 | -78.88295 | 20459 ft | 407 kts | 106° |
| 2026-05-05 23:55 | 25.38942 | -78.85267 | 20136 ft | 411 kts | 106° |
| 2026-05-05 23:55 | 25.38042 | -78.82256 | 19866 ft | 413 kts | 106° |
| 2026-05-05 23:56 | 25.37135 | -78.79215 | 19620 ft | 414 kts | 106° |
| 2026-05-05 23:56 | 25.36224 | -78.76173 | 19381 ft | 412 kts | 106° |
| 2026-05-05 23:56 | 25.35331 | -78.73188 | 19117 ft | 408 kts | 106° |
| 2026-05-05 23:56 | 25.34434 | -78.70198 | 18794 ft | 396 kts | 106° |
| 2026-05-05 23:57 | 25.33579 | -78.67353 | 18456 ft | 383 kts | 106° |
| 2026-05-05 23:57 | 25.32745 | -78.64578 | 18005 ft | 374 kts | 106° |
| 2026-05-05 23:57 | 25.31927 | -78.61846 | 17540 ft | 366 kts | 106° |
| 2026-05-05 23:57 | 25.31133 | -78.59206 | 17079 ft | 358 kts | 106° |
| 2026-05-05 23:58 | 25.30341 | -78.56564 | 16612 ft | 354 kts | 106° |
| 2026-05-05 23:58 | 25.29571 | -78.53997 | 16163 ft | 353 kts | 107° |
| 2026-05-05 23:58 | 25.28787 | -78.51389 | 15710 ft | 352 kts | 107° |
| 2026-05-05 23:58 | 25.28005 | -78.48792 | 15253 ft | 351 kts | 107° |
| 2026-05-05 23:59 | 25.27269 | -78.46212 | 14802 ft | 349 kts | 101° |
| 2026-05-05 23:59 | 25.27263 | -78.43559 | 14393 ft | 339 kts | 79° |
| 2026-05-05 23:59 | 25.27426 | -78.40985 | 13891 ft | 337 kts | 96° |
| 2026-05-05 23:59 | 25.26629 | -78.38580 | 13397 ft | 332 kts | 125° |
| 2026-05-06 00:00 | 25.25135 | -78.36615 | 12966 ft | 330 kts | 127° |
| 2026-05-06 00:00 | 25.23984 | -78.34376 | 12550 ft | 333 kts | 116° |
| 2026-05-06 00:00 | 25.23063 | -78.32001 | 12101 ft | 335 kts | 111° |
| 2026-05-06 00:00 | 25.22252 | -78.29588 | 11646 ft | 329 kts | 110° |
| 2026-05-06 00:01 | 25.21512 | -78.27249 | 11168 ft | 318 kts | 109° |
| 2026-05-06 00:01 | 25.20802 | -78.24944 | 10685 ft | 309 kts | 109° |
| 2026-05-06 00:01 | 25.20119 | -78.22723 | 10210 ft | 301 kts | 108° |
| 2026-05-06 00:01 | 25.19851 | -78.20422 | 9739 ft | 297 kts | 90° |
| 2026-05-06 00:02 | 25.19820 | -78.18141 | 9174 ft | 294 kts | 90° |
| 2026-05-06 00:02 | 25.19789 | -78.15883 | 8624 ft | 291 kts | 90° |
| 2026-05-06 00:02 | 25.19761 | -78.13639 | 8072 ft | 294 kts | 90° |
| 2026-05-06 00:02 | 25.19734 | -78.11365 | 7527 ft | 297 kts | 90° |
| 2026-05-06 00:03 | 25.19705 | -78.09049 | 6970 ft | 299 kts | 90° |
| 2026-05-06 00:03 | 25.19675 | -78.06715 | 6413 ft | 299 kts | 90° |
| 2026-05-06 00:03 | 25.19644 | -78.04462 | 5774 ft | 289 kts | 90° |
| 2026-05-06 00:03 | 25.19612 | -78.02269 | 5267 ft | 279 kts | 90° |
| 2026-05-06 00:04 | 25.19582 | -78.00134 | 4708 ft | 276 kts | 90° |
| 2026-05-06 00:04 | 25.19553 | -77.98053 | 4280 ft | 267 kts | 90° |
| 2026-05-06 00:04 | 25.19518 | -77.95997 | 3851 ft | 260 kts | 90° |
| 2026-05-06 00:04 | 25.19485 | -77.94006 | 3432 ft | 254 kts | 90° |
| 2026-05-06 00:05 | 25.19428 | -77.90149 | 2749 ft | 245 kts | 90° |
| 2026-05-06 00:05 | 25.19400 | -77.88238 | 2601 ft | 241 kts | 90° |
| 2026-05-06 00:05 | 25.19374 | -77.86388 | 2450 ft | 238 kts | 90° |
| 2026-05-06 00:06 | 25.19347 | -77.84550 | 2294 ft | 237 kts | 90° |
| 2026-05-06 00:06 | 25.19321 | -77.82728 | 2214 ft | 230 kts | 90° |
| 2026-05-06 00:06 | 25.19293 | -77.80981 | 2118 ft | 223 kts | 90° |
| 2026-05-06 00:06 | 25.19268 | -77.79273 | 1998 ft | 218 kts | 89° |
| 2026-05-06 00:07 | 25.19242 | -77.77604 | 1976 ft | 213 kts | 89° |
| 2026-05-06 00:07 | 25.19219 | -77.75944 | 1979 ft | 216 kts | 89° |
| 2026-05-06 00:07 | 25.19193 | -77.74263 | 1975 ft | 218 kts | 89° |
| 2026-05-06 00:07 | 25.19169 | -77.72582 | 1971 ft | 219 kts | 89° |
| 2026-05-06 00:08 | 25.19156 | -77.70882 | 1966 ft | 218 kts | 89° |
| 2026-05-06 00:08 | 25.19173 | -77.69192 | 1965 ft | 217 kts | 87° |
| 2026-05-06 00:08 | 25.19238 | -77.67535 | 1951 ft | 203 kts | 85° |
| 2026-05-06 00:08 | 25.19336 | -77.66050 | 1932 ft | 187 kts | 84° |
| 2026-05-06 00:09 | 25.19459 | -77.64622 | 1944 ft | 182 kts | 84° |
| 2026-05-06 00:09 | 25.19278 | -77.63267 | 1938 ft | 176 kts | 117° |
| 2026-05-06 00:09 | 25.18564 | -77.62190 | 1958 ft | 170 kts | 134° |
| 2026-05-06 00:09 | 25.17695 | -77.61324 | 1963 ft | 168 kts | 136° |
| 2026-05-06 00:10 | 25.16840 | -77.60398 | 1973 ft | 171 kts | 135° |
| 2026-05-06 00:10 | 25.15991 | -77.59468 | 1969 ft | 171 kts | 135° |
| 2026-05-06 00:10 | 25.15170 | -77.58562 | 2145 ft | 157 kts | 135° |
| 2026-05-06 00:10 | 25.14316 | -77.57620 | 1976 ft | 176 kts | 135° |
| 2026-05-06 00:11 | 25.13432 | -77.56641 | 1985 ft | 181 kts | 135° |
| 2026-05-06 00:11 | 25.12528 | -77.55643 | 1961 ft | 187 kts | 135° |
| 2026-05-06 00:11 | 25.11579 | -77.54595 | 1736 ft | 199 kts | 135° |
| 2026-05-06 00:11 | 25.10569 | -77.53477 | 1492 ft | 205 kts | 135° |
| 2026-05-06 00:12 | 25.09616 | -77.52425 | 1256 ft | 181 kts | 134° |
| 2026-05-06 00:12 | 25.08772 | -77.51485 | 988 ft | 158 kts | 135° |
| 2026-05-06 00:12 | 25.08041 | -77.50681 | 766 ft | 137 kts | 135° |
| 2026-05-06 00:12 | 25.07413 | -77.49992 | 589 ft | 119 kts | 138° |
| 2026-05-06 00:13 | 25.06810 | -77.49339 | 522 ft | 128 kts | 137° |
| 2026-05-06 00:13 | 25.06164 | -77.48623 | 365 ft | 132 kts | 137° |
| 2026-05-06 00:13 | 25.05535 | -77.47921 | 172 ft | 124 kts | 137° |
| 2026-05-06 00:13 | 25.04931 | -77.47278 | 21 ft | 111 kts | 136° |
| 2026-05-06 00:14 | 25.04434 | -77.46729 | 21 ft | 92 kts | 135° |
| 2026-05-06 00:14 | 25.04044 | -77.46301 | 21 ft | 64 kts | 132° |
| 2026-05-06 00:14 | 25.03735 | -77.45959 | 21 ft | 55 kts | 134° |
| 2026-05-06 00:14 | 25.03508 | -77.45711 | 21 ft | 27 kts | 118° |
| 2026-05-06 00:15 | 25.03394 | -77.45634 | 21 ft | 17 kts | 195° |
| 2026-05-06 00:15 | 25.03352 | -77.45649 | 21 ft | 0 kts | 201° |
| 2026-05-06 00:15 | 25.03309 | -77.45669 | 21 ft | 11 kts | 201° |
| 2026-05-06 00:15 | 25.03229 | -77.45699 | 21 ft | 12 kts | 193° |
| 2026-05-06 00:16 | 25.03148 | -77.45686 | 21 ft | 9 kts | 169° |
| 2026-05-06 00:16 | 25.03102 | -77.45634 | 21 ft | 7 kts | 172° |
| 2026-05-06 00:16 | 25.03088 | -77.45657 | 21 ft | 4 kts | 291° |
| 2026-05-06 00:16 | 25.03092 | -77.45667 | 21 ft | 0 kts | 288° |
| 2026-05-06 00:17 | 25.03093 | -77.45670 | 21 ft | 0 kts | 312° |